Auvergne, Arkansas
Current Conditions -  °F | °C
As of 2:56 PM on Monday 22 Dec 2014 (Local Time) from KM19 Reporting Station
Haze Haze  
Wind Chill: 53°   Ceiling: 700
Heat Index: 53°   Visibility: 6mi
Dew Point: 53°   Wind: 12mph
Humidity: 100%   Direction: 180°S
Pressure: 29.59"   Gusts: NA
Location:  35.5678°N, 91.2073°W
Report Text: KM19 222056Z AUTO 18010KT 6SM BR OVC007 12/12 A2959 RMK AO2 56025 60000 T01160116 SLP019
Loading
Personal Weather Stations






























Interactive Weather Map New forecast layout! Learn more

10-Day Weather Forecast

Advertisements
Track Severe Weather on mobile